Time;durP1;ratioP1;P1;durP2;ratioP2;P2;SDS_P1;SDS_P2;PMS_P1;PMS_P2;Temp;Humidity;BMP_temperature;BMP_pressure;BME280_temperature;BME280_humidity;BME280_pressure;Samples;Min_cycle;Max_cycle;Signal;HPM_P1;HPM_P2
2024/04/12 00:01:16;;;;;;;5.83;4.37;;;;;;;;;;5348270;26;20291;-87
2024/04/12 00:03:42;;;;;;;2.50;1.77;;;;;;;;;;5322136;26;20244;-87
2024/04/12 00:06:15;;;;;;;5.80;2.70;;;;;;;;;;5321925;26;20277;-87
2024/04/12 00:08:53;;;;;;;3.80;2.83;;;;;;;;;;5356111;26;20276;-88
2024/04/12 00:11:20;;;;;;;5.00;2.30;;;;;;;;;;5352549;26;20283;-87
2024/04/12 00:13:47;;;;;;;3.60;3.07;;;;;;;;;;5298075;26;20265;-87
2024/04/12 00:16:17;;;;;;;3.07;2.50;;;;;;;;;;5329620;26;20260;-88
2024/04/12 00:18:47;;;;;;;4.40;2.40;;;;;;;;;;5318674;26;20334;-87
2024/04/12 00:21:14;;;;;;;3.57;3.07;;;;;;;;;;5352492;26;20276;-87
2024/04/12 00:23:41;;;;;;;2.90;2.67;;;;;;;;;;5326305;26;20284;-88
2024/04/12 00:26:11;;;;;;;5.90;3.07;;;;;;;;;;5318290;26;20257;-89
2024/04/12 00:28:38;;;;;;;7.80;3.70;;;;;;;;;;5291239;26;20700;-86
2024/04/12 00:31:06;;;;;;;5.23;3.80;;;;;;;;;;5321483;26;20680;-87
2024/04/12 00:33:35;;;;;;;5.67;3.33;;;;;;;;;;5319412;26;20283;-88
2024/04/12 00:36:11;;;;;;;5.67;2.80;;;;;;;;;;5294313;26;20264;-87
2024/04/12 00:38:38;;;;;;;12.73;4.33;;;;;;;;;;5346937;26;20315;-87
2024/04/12 00:41:14;;;;;;;10.33;4.60;;;;;;;;;;5325457;26;20259;-88
2024/04/12 00:43:48;;;;;;;7.43;4.50;;;;;;;;;;5352797;26;20373;-87
2024/04/12 00:46:15;;;;;;;7.23;4.97;;;;;;;;;;5346510;26;20256;-88
2024/04/12 00:48:45;;;;;;;7.67;4.53;;;;;;;;;;5321582;26;20287;-87
2024/04/12 00:51:15;;;;;;;9.90;5.53;;;;;;;;;;5324162;26;20268;-86
2024/04/12 00:54:02;;;;;;;8.20;4.80;;;;;;;;;;5351699;26;20268;-86
2024/04/12 00:56:29;;;;;;;13.93;3.87;;;;;;;;;;5349161;26;20263;-86
2024/04/12 00:58:55;;;;;;;3.83;3.20;;;;;;;;;;5352973;26;20256;-89
2024/04/12 01:01:22;;;;;;;8.27;4.60;;;;;;;;;;5349045;26;20260;-88
2024/04/12 01:03:49;;;;;;;10.10;5.23;;;;;;;;;;5326211;26;20250;-87
2024/04/12 01:06:16;;;;;;;7.77;5.03;;;;;;;;;;5351736;26;20249;-87
2024/04/12 01:08:46;;;;;;;9.50;5.00;;;;;;;;;;5329219;26;20247;-87
2024/04/12 01:11:15;;;;;;;12.00;6.33;;;;;;;;;;5350560;26;20715;-87
2024/04/12 01:13:42;;;;;;;13.43;6.73;;;;;;;;;;5349316;26;20260;-87
2024/04/12 01:16:10;;;;;;;27.63;6.50;;;;;;;;;;5292872;26;20853;-87
2024/04/12 01:18:37;;;;;;;12.37;5.93;;;;;;;;;;5349779;26;20286;-88
2024/04/12 01:21:10;;;;;;;7.23;3.90;;;;;;;;;;5349431;26;20275;-88
2024/04/12 01:23:48;;;;;;;9.10;5.43;;;;;;;;;;5294241;26;20265;-88
2024/04/12 01:26:17;;;;;;;15.03;5.77;;;;;;;;;;5323537;26;20294;-88
2024/04/12 01:28:43;;;;;;;13.70;5.53;;;;;;;;;;5328495;26;20662;-88
2024/04/12 01:31:17;;;;;;;13.40;5.43;;;;;;;;;;5309826;26;20271;-88
2024/04/12 01:33:48;;;;;;;8.73;5.33;;;;;;;;;;5353455;26;20282;-86
2024/04/12 01:36:17;;;;;;;10.90;5.87;;;;;;;;;;5279366;26;20248;-88
2024/04/12 01:38:45;;;;;;;12.43;5.43;;;;;;;;;;5324616;26;20307;-88
2024/04/12 01:41:11;;;;;;;12.30;4.70;;;;;;;;;;5335509;26;20369;-89
2024/04/12 01:43:38;;;;;;;12.60;5.73;;;;;;;;;;5323797;26;20684;-88
2024/04/12 01:46:09;;;;;;;11.93;5.33;;;;;;;;;;5319902;26;20338;-88
2024/04/12 01:48:36;;;;;;;7.47;4.57;;;;;;;;;;5319803;26;20419;-87
2024/04/12 01:51:02;;;;;;;7.53;4.53;;;;;;;;;;5296162;26;20309;-86
2024/04/12 01:53:29;;;;;;;11.93;5.60;;;;;;;;;;5351765;26;21407;-86
2024/04/12 01:55:59;;;;;;;8.87;5.57;;;;;;;;;;5348407;26;20252;-86
2024/04/12 01:58:26;;;;;;;12.70;5.33;;;;;;;;;;5356000;26;20776;-87
2024/04/12 02:00:52;;;;;;;12.37;5.90;;;;;;;;;;5306941;26;20288;-86
2024/04/12 02:03:19;;;;;;;7.17;3.77;;;;;;;;;;5320235;26;20267;-87
2024/04/12 02:05:45;;;;;;;6.43;3.77;;;;;;;;;;5320239;26;20265;-86
2024/04/12 02:08:16;;;;;;;9.27;4.07;;;;;;;;;;5348994;26;20269;-85
2024/04/12 02:10:43;;;;;;;12.33;4.60;;;;;;;;;;5293893;26;20605;-87
2024/04/12 02:13:16;;;;;;;12.27;4.00;;;;;;;;;;5350316;26;20823;-87
2024/04/12 02:15:43;;;;;;;11.17;3.93;;;;;;;;;;5321661;26;21051;-86
2024/04/12 02:18:13;;;;;;;3.10;2.90;;;;;;;;;;5346610;26;20312;-85
2024/04/12 02:20:40;;;;;;;10.33;3.90;;;;;;;;;;5324398;26;20282;-86
2024/04/12 02:23:15;;;;;;;10.00;4.50;;;;;;;;;;5291249;26;20269;-85
2024/04/12 02:25:41;;;;;;;10.80;4.50;;;;;;;;;;5324892;26;20475;-86
2024/04/12 02:28:09;;;;;;;7.43;4.23;;;;;;;;;;5351314;26;20276;-86
2024/04/12 02:30:41;;;;;;;8.93;3.77;;;;;;;;;;5355114;26;20245;-86
2024/04/12 02:33:12;;;;;;;5.00;3.17;;;;;;;;;;5319354;26;20331;-86
2024/04/12 02:35:41;;;;;;;8.83;5.10;;;;;;;;;;5318367;26;20264;-86
2024/04/12 02:38:20;;;;;;;11.63;3.53;;;;;;;;;;5347000;26;20373;-86
2024/04/12 02:40:47;;;;;;;6.10;4.33;;;;;;;;;;5351975;26;20268;-86
2024/04/12 02:43:16;;;;;;;5.60;3.83;;;;;;;;;;5299238;26;20690;-86
2024/04/12 02:45:48;;;;;;;7.43;4.07;;;;;;;;;;5335238;26;20248;-85
2024/04/12 02:48:19;;;;;;;5.83;3.93;;;;;;;;;;5352868;26;20249;-86
2024/04/12 02:50:48;;;;;;;7.70;2.87;;;;;;;;;;5352758;26;20377;-86
2024/04/12 02:53:18;;;;;;;4.87;3.87;;;;;;;;;;5322463;26;20291;-86
2024/04/12 02:55:44;;;;;;;2.80;2.23;;;;;;;;;;5294948;26;20269;-86
2024/04/12 02:58:12;;;;;;;3.50;2.13;;;;;;;;;;5323829;26;20304;-86
2024/04/12 03:00:39;;;;;;;4.37;2.17;;;;;;;;;;5325877;26;20252;-85
2024/04/12 03:03:05;;;;;;;11.30;4.00;;;;;;;;;;5309220;26;20264;-86
2024/04/12 03:05:32;;;;;;;6.93;3.50;;;;;;;;;;5352363;26;20291;-85
2024/04/12 03:08:00;;;;;;;4.33;3.03;;;;;;;;;;5323351;26;20285;-88
2024/04/12 03:10:32;;;;;;;5.03;3.97;;;;;;;;;;5308088;26;20273;-86
2024/04/12 03:13:00;;;;;;;7.63;4.60;;;;;;;;;;5352842;26;20622;-84
2024/04/12 03:15:30;;;;;;;3.13;2.17;;;;;;;;;;5322938;26;20280;-86
2024/04/12 03:17:57;;;;;;;4.77;1.60;;;;;;;;;;5319659;26;20748;-86
2024/04/12 03:20:23;;;;;;;4.00;3.60;;;;;;;;;;5355964;26;20304;-86
2024/04/12 03:22:49;;;;;;;4.63;2.70;;;;;;;;;;5328907;26;20298;-85
2024/04/12 03:25:15;;;;;;;2.90;1.77;;;;;;;;;;5299816;26;20272;-86
2024/04/12 03:27:42;;;;;;;1.57;1.07;;;;;;;;;;5354828;26;20351;-87
2024/04/12 03:30:13;;;;;;;5.87;2.93;;;;;;;;;;5326647;26;20302;-86
2024/04/12 03:32:46;;;;;;;2.43;1.93;;;;;;;;;;5328444;26;20336;-86
2024/04/12 03:35:14;;;;;;;4.93;1.30;;;;;;;;;;5337020;26;20277;-85
2024/04/12 03:37:47;;;;;;;3.03;2.17;;;;;;;;;;5322531;26;20277;-86
2024/04/12 03:40:17;;;;;;;3.93;3.30;;;;;;;;;;5339148;26;20579;-86
2024/04/12 03:42:44;;;;;;;3.13;2.60;;;;;;;;;;5323419;26;20296;-87
2024/04/12 03:45:13;;;;;;;2.30;1.47;;;;;;;;;;5354627;26;20295;-87
2024/04/12 03:47:50;;;;;;;9.27;2.17;;;;;;;;;;5356053;26;20261;-87
2024/04/12 03:50:16;;;;;;;2.80;1.37;;;;;;;;;;5353952;26;20368;-88
2024/04/12 03:52:48;;;;;;;2.57;1.97;;;;;;;;;;5327161;26;20268;-87
2024/04/12 03:55:14;;;;;;;4.03;2.50;;;;;;;;;;5323852;26;20264;-87
2024/04/12 03:57:44;;;;;;;3.53;1.23;;;;;;;;;;5322519;26;20276;-85
2024/04/12 04:00:11;;;;;;;1.97;1.80;;;;;;;;;;5352307;26;20269;-86
2024/04/12 04:02:40;;;;;;;1.70;1.40;;;;;;;;;;5326574;26;20268;-86
2024/04/12 04:05:16;;;;;;;4.23;2.67;;;;;;;;;;5296827;26;20264;-85
2024/04/12 04:07:46;;;;;;;3.20;2.57;;;;;;;;;;5300978;26;20269;-86
2024/04/12 04:10:15;;;;;;;2.93;2.63;;;;;;;;;;5337282;26;20268;-87
2024/04/12 04:12:45;;;;;;;1.97;1.83;;;;;;;;;;5340050;26;20287;-87
2024/04/12 04:15:11;;;;;;;2.90;2.17;;;;;;;;;;5330873;26;20337;-87
2024/04/12 04:17:38;;;;;;;5.27;2.17;;;;;;;;;;5352893;26;20314;-87
2024/04/12 04:20:06;;;;;;;2.33;1.93;;;;;;;;;;5296889;26;20399;-87
2024/04/12 04:25:07;;;;;;;4.27;1.93;;;;;;;;;;5322157;26;20278;-88
2024/04/12 04:27:34;;;;;;;3.27;2.13;;;;;;;;;;5353664;26;20294;-86
2024/04/12 04:30:00;;;;;;;4.23;2.80;;;;;;;;;;5325754;26;20320;-86
2024/04/12 04:32:27;;;;;;;3.03;2.67;;;;;;;;;;5322434;26;20268;-85
2024/04/12 04:35:05;;;;;;;3.43;2.23;;;;;;;;;;5355147;26;20264;-86
2024/04/12 04:37:34;;;;;;;4.13;2.60;;;;;;;;;;5326602;26;20582;-86
2024/04/12 04:40:09;;;;;;;9.60;2.10;;;;;;;;;;5324804;26;20245;-86
2024/04/12 04:42:36;;;;;;;5.63;3.20;;;;;;;;;;5323373;26;20248;-85
2024/04/12 04:45:07;;;;;;;4.50;2.43;;;;;;;;;;5324721;26;20352;-86
2024/04/12 04:47:33;;;;;;;13.33;3.83;;;;;;;;;;5301596;26;20275;-86
2024/04/12 04:50:00;;;;;;;7.40;3.43;;;;;;;;;;5292869;26;20614;-86
2024/04/12 04:52:34;;;;;;;6.83;4.10;;;;;;;;;;5320347;26;20386;-87
2024/04/12 04:55:02;;;;;;;8.27;3.60;;;;;;;;;;5319369;26;20247;-86
2024/04/12 04:57:29;;;;;;;6.57;4.40;;;;;;;;;;5293144;26;21039;-84
2024/04/12 05:00:06;;;;;;;6.37;4.03;;;;;;;;;;5348572;26;20748;-85
2024/04/12 05:02:36;;;;;;;4.37;2.63;;;;;;;;;;5319424;26;20267;-84
2024/04/12 05:05:08;;;;;;;3.27;2.93;;;;;;;;;;5348531;26;20281;-86
2024/04/12 05:07:34;;;;;;;8.70;2.90;;;;;;;;;;5321106;26;20273;-86
2024/04/12 05:10:14;;;;;;;5.40;3.10;;;;;;;;;;5325677;26;20249;-88
2024/04/12 05:12:40;;;;;;;7.93;3.20;;;;;;;;;;5354867;26;20279;-86
2024/04/12 05:17:54;;;;;;;3.37;2.73;;;;;;;;;;5350485;26;20303;-86
2024/04/12 05:20:38;;;;;;;3.07;2.43;;;;;;;;;;5309643;26;20268;-85
2024/04/12 05:23:08;;;;;;;7.03;3.47;;;;;;;;;;5337687;26;20264;-86
2024/04/12 05:25:34;;;;;;;5.10;3.60;;;;;;;;;;5349369;26;20269;-85
2024/04/12 05:28:01;;;;;;;8.43;3.83;;;;;;;;;;5318005;26;20737;-87
2024/04/12 05:30:27;;;;;;;3.80;2.60;;;;;;;;;;5315388;26;20736;-85
2024/04/12 05:32:53;;;;;;;7.40;4.13;;;;;;;;;;5294617;26;20298;-86
2024/04/12 05:35:26;;;;;;;5.27;3.50;;;;;;;;;;5333050;26;20269;-87
2024/04/12 05:37:52;;;;;;;3.50;3.20;;;;;;;;;;5323259;26;20335;-86
2024/04/12 05:40:22;;;;;;;5.20;2.60;;;;;;;;;;5319638;26;20261;-85
2024/04/12 05:42:48;;;;;;;7.10;3.37;;;;;;;;;;5291274;26;20303;-86
2024/04/12 05:45:19;;;;;;;3.43;2.40;;;;;;;;;;5321300;26;20240;-91
2024/04/12 05:47:53;;;;;;;3.53;2.53;;;;;;;;;;5321717;26;20725;-88
2024/04/12 05:50:19;;;;;;;6.10;4.00;;;;;;;;;;5324908;26;20267;-91
2024/04/12 05:52:46;;;;;;;2.30;1.37;;;;;;;;;;5295129;26;20676;-90
2024/04/12 05:55:13;;;;;;;4.27;2.77;;;;;;;;;;5328662;26;20358;-89
2024/04/12 05:57:40;;;;;;;4.07;2.90;;;;;;;;;;5327894;26;20869;-91
2024/04/12 06:00:09;;;;;;;7.03;3.47;;;;;;;;;;5321990;26;20311;-89
2024/04/12 06:02:37;;;;;;;7.87;2.83;;;;;;;;;;5298200;26;20783;-90
2024/04/12 06:05:06;;;;;;;4.30;2.50;;;;;;;;;;5337447;26;20269;-89
2024/04/12 06:07:37;;;;;;;9.20;3.87;;;;;;;;;;5324682;26;20335;-88
2024/04/12 06:10:04;;;;;;;4.13;1.77;;;;;;;;;;5324655;26;20304;-89
2024/04/12 06:12:33;;;;;;;4.60;3.60;;;;;;;;;;5338029;26;20340;-89
2024/04/12 06:15:04;;;;;;;3.03;2.17;;;;;;;;;;5297812;26;20298;-90
2024/04/12 06:17:33;;;;;;;5.40;2.93;;;;;;;;;;5308143;26;20267;-90
2024/04/12 06:20:00;;;;;;;7.30;3.07;;;;;;;;;;5294117;26;20294;-91
2024/04/12 06:22:26;;;;;;;4.00;2.73;;;;;;;;;;5247019;26;20313;-91
2024/04/12 06:25:01;;;;;;;8.63;2.17;;;;;;;;;;5231898;27;20246;-91
2024/04/12 06:27:33;;;;;;;4.33;2.73;;;;;;;;;;5256200;26;20241;-91
2024/04/12 06:30:02;;;;;;;6.47;3.67;;;;;;;;;;5266730;27;20320;-91
2024/04/12 06:32:28;;;;;;;5.97;3.47;;;;;;;;;;5239564;26;20314;-90
2024/04/12 06:34:55;;;;;;;4.17;3.53;;;;;;;;;;5239316;27;20266;-93
2024/04/12 06:37:21;;;;;;;14.07;4.73;;;;;;;;;;5257610;27;20261;-92
2024/04/12 06:39:55;;;;;;;5.50;4.97;;;;;;;;;;5241162;27;20336;-87
2024/04/12 06:42:27;;;;;;;14.80;4.80;;;;;;;;;;5237533;27;20895;-91
2024/04/12 06:44:54;;;;;;;11.20;4.90;;;;;;;;;;5293972;26;20270;-90
2024/04/12 06:47:21;;;;;;;7.83;2.57;;;;;;;;;;5213865;27;20298;-93
2024/04/12 06:50:08;;;;;;;9.23;2.90;;;;;;;;;;5262521;27;20322;-91
2024/04/12 06:52:40;;;;;;;5.23;3.53;;;;;;;;;;5246660;26;20266;-92
2024/04/12 06:55:14;;;;;;;13.97;5.00;;;;;;;;;;5310245;26;20267;-92
2024/04/12 06:57:44;;;;;;;11.70;5.47;;;;;;;;;;5325187;26;20242;-90
2024/04/12 07:00:10;;;;;;;7.50;4.97;;;;;;;;;;5325514;26;20302;-92
2024/04/12 07:02:36;;;;;;;7.47;3.47;;;;;;;;;;5344428;26;20260;-90
2024/04/12 07:05:05;;;;;;;9.97;4.63;;;;;;;;;;5321421;26;20291;-90
2024/04/12 07:07:32;;;;;;;8.70;4.17;;;;;;;;;;5322879;26;20294;-90
2024/04/12 07:09:58;;;;;;;7.00;5.30;;;;;;;;;;5297764;26;20701;-90
2024/04/12 07:12:27;;;;;;;9.93;4.93;;;;;;;;;;5326053;26;20250;-92
2024/04/12 07:14:57;;;;;;;5.67;3.70;;;;;;;;;;5355417;26;20307;-90
2024/04/12 07:17:23;;;;;;;10.07;3.67;;;;;;;;;;5323712;26;20268;-92
2024/04/12 07:19:53;;;;;;;4.60;3.13;;;;;;;;;;5287478;26;20705;-91
2024/04/12 07:22:20;;;;;;;7.57;3.73;;;;;;;;;;5231815;27;20305;-91
2024/04/12 07:24:57;;;;;;;11.83;3.17;;;;;;;;;;5284775;26;20738;-91
2024/04/12 07:27:27;;;;;;;9.07;3.07;;;;;;;;;;5244607;26;20293;-91
2024/04/12 07:29:53;;;;;;;9.53;2.90;;;;;;;;;;5261149;27;20310;-91
2024/04/12 07:32:22;;;;;;;6.03;3.53;;;;;;;;;;5231384;27;20266;-90
2024/04/12 07:34:49;;;;;;;23.73;3.70;;;;;;;;;;5230463;27;20331;-92
2024/04/12 07:37:27;;;;;;;4.93;2.53;;;;;;;;;;5239320;27;20267;-90
2024/04/12 07:40:15;;;;;;;6.33;3.50;;;;;;;;;;5255231;27;20282;-91
2024/04/12 07:42:45;;;;;;;11.43;3.23;;;;;;;;;;5204600;27;20369;-91
2024/04/12 07:45:16;;;;;;;5.00;1.77;;;;;;;;;;5253455;27;20263;-91
2024/04/12 07:47:52;;;;;;;4.43;2.90;;;;;;;;;;5220953;27;20293;-92
2024/04/12 07:50:34;;;;;;;4.23;2.43;;;;;;;;;;5275788;26;20567;-91
2024/04/12 07:55:52;;;;;;;5.13;3.20;;;;;;;;;;5351773;26;20269;-91
2024/04/12 07:58:19;;;;;;;5.67;2.87;;;;;;;;;;5301487;26;20821;-88
2024/04/12 08:00:48;;;;;;;4.23;2.27;;;;;;;;;;5329822;26;20247;-92
2024/04/12 08:03:20;;;;;;;3.87;1.97;;;;;;;;;;5332344;26;20351;-93
2024/04/12 08:06:05;;;;;;;4.07;2.03;;;;;;;;;;5305356;26;20272;-90
2024/04/12 08:08:34;;;;;;;4.63;1.63;;;;;;;;;;5287722;26;20269;-92
2024/04/12 08:11:11;;;;;;;3.53;2.87;;;;;;;;;;5291699;26;20265;-94
2024/04/12 08:13:50;;;;;;;3.13;1.67;;;;;;;;;;5221930;27;20297;-93
2024/04/12 08:16:23;;;;;;;4.83;1.97;;;;;;;;;;5203849;27;20274;-92
2024/04/12 08:18:54;;;;;;;6.57;1.67;;;;;;;;;;5229936;27;20277;-93
2024/04/12 08:21:27;;;;;;;9.80;1.90;;;;;;;;;;5241208;27;20258;-94
2024/04/12 08:23:56;;;;;;;4.63;2.03;;;;;;;;;;5229541;26;20279;-93
2024/04/12 08:26:27;;;;;;;4.85;2.30;;;;;;;;;;5219965;26;20263;-94
2024/04/12 08:28:56;;;;;;;8.27;2.30;;;;;;;;;;5224902;27;20317;-93
2024/04/12 08:31:25;;;;;;;5.17;2.27;;;;;;;;;;5213872;27;20294;-95
2024/04/12 08:33:53;;;;;;;2.67;1.50;;;;;;;;;;5221585;27;20248;-94
2024/04/12 08:36:24;;;;;;;3.88;1.67;;;;;;;;;;5258086;27;20364;-90
2024/04/12 08:41:41;;;;;;;2.17;1.40;;;;;;;;;;5256483;27;20270;-93
2024/04/12 08:44:11;;;;;;;5.07;1.97;;;;;;;;;;5241998;27;20270;-92
2024/04/12 08:46:38;;;;;;;2.93;1.27;;;;;;;;;;5231305;27;20430;-93
2024/04/12 08:49:04;;;;;;;7.70;2.10;;;;;;;;;;5192700;27;20252;-92
2024/04/12 08:51:32;;;;;;;1.40;1.30;;;;;;;;;;5298396;26;20744;-93
2024/04/12 08:54:03;;;;;;;3.57;1.77;;;;;;;;;;5304831;26;20261;-93
2024/04/12 08:56:29;;;;;;;9.30;1.60;;;;;;;;;;5279046;26;20290;-92
2024/04/12 08:59:05;;;;;;;2.33;1.57;;;;;;;;;;5259386;26;20299;-93
2024/04/12 09:01:40;;;;;;;3.63;1.83;;;;;;;;;;5298983;26;20719;-93
2024/04/12 09:04:14;;;;;;;1.00;1.00;;;;;;;;;;5248570;26;20240;-94
2024/04/12 09:06:48;;;;;;;4.27;2.07;;;;;;;;;;5276816;26;20246;-93
2024/04/12 09:09:14;;;;;;;4.87;1.60;;;;;;;;;;5258227;26;20241;-93
2024/04/12 09:11:48;;;;;;;6.63;1.67;;;;;;;;;;5254467;26;20254;-94
2024/04/12 09:14:20;;;;;;;5.37;1.50;;;;;;;;;;5292193;26;20266;-94
2024/04/12 09:16:48;;;;;;;6.53;1.63;;;;;;;;;;5263250;26;20353;-94
2024/04/12 09:19:15;;;;;;;5.33;2.23;;;;;;;;;;5268944;26;20295;-93
2024/04/12 09:21:47;;;;;;;0.80;0.80;;;;;;;;;;5325887;26;20245;-93
2024/04/12 09:24:21;;;;;;;2.30;1.20;;;;;;;;;;5318442;26;20333;-92
2024/04/12 09:26:58;;;;;;;5.23;2.20;;;;;;;;;;5324480;26;20259;-93
2024/04/12 09:29:27;;;;;;;7.63;2.43;;;;;;;;;;5324611;26;20255;-92
2024/04/12 09:34:55;;;;;;;4.00;1.97;;;;;;;;;;5272634;27;20271;-93
2024/04/12 09:37:38;;;;;;;2.37;1.43;;;;;;;;;;5228612;27;20269;-94
2024/04/12 09:45:22;;;;;;;4.93;2.23;;;;;;;;;;5253039;27;20234;-91
2024/04/12 10:38:29;;;;;;;4.53;1.67;;;;;;;;;;5217177;27;20271;-90
2024/04/12 10:40:58;;;;;;;5.67;2.07;;;;;;;;;;5304978;26;20264;-92
2024/04/12 10:43:27;;;;;;;6.87;1.73;;;;;;;;;;5296367;26;20304;-92
2024/04/12 10:46:01;;;;;;;3.63;1.60;;;;;;;;;;5292902;26;20246;-95
2024/04/12 10:48:29;;;;;;;5.57;2.27;;;;;;;;;;5328053;26;20244;-93
2024/04/12 10:50:55;;;;;;;5.03;1.57;;;;;;;;;;5367084;26;20269;-93
2024/04/12 10:53:23;;;;;;;11.70;2.03;;;;;;;;;;5322413;26;20272;-93
2024/04/12 10:55:52;;;;;;;3.70;0.90;;;;;;;;;;5328604;26;20311;-95
2024/04/12 10:58:27;;;;;;;4.43;1.60;;;;;;;;;;5359504;26;20275;-89
2024/04/12 11:00:56;;;;;;;6.30;1.43;;;;;;;;;;5294031;26;20289;-92
2024/04/12 11:03:24;;;;;;;4.50;1.47;;;;;;;;;;5294567;26;20313;-91
2024/04/12 11:05:52;;;;;;;4.03;2.27;;;;;;;;;;5292439;26;20762;-91
2024/04/12 11:08:22;;;;;;;9.38;2.35;;;;;;;;;;5284828;26;20311;-92
2024/04/12 11:11:15;;;;;;;6.93;2.00;;;;;;;;;;5291145;26;20273;-93
2024/04/12 11:13:45;;;;;;;15.27;2.00;;;;;;;;;;5287585;26;20415;-93
2024/04/12 11:33:31;;;;;;;11.33;2.37;;;;;;;;;;5237342;27;20386;-91
2024/04/12 11:36:01;;;;;;;2.57;1.13;;;;;;;;;;5213483;27;20293;-88
2024/04/12 11:38:27;;;;;;;6.73;2.47;;;;;;;;;;5237774;27;20274;-90
2024/04/12 11:40:57;;;;;;;8.00;2.43;;;;;;;;;;5215344;27;20274;-95
2024/04/12 11:43:26;;;;;;;1.63;1.00;;;;;;;;;;5234294;27;21555;-92
2024/04/12 11:45:52;;;;;;;6.93;2.10;;;;;;;;;;5232769;27;20273;-92
2024/04/12 11:48:19;;;;;;;8.00;2.13;;;;;;;;;;5242888;27;21728;-94
2024/04/12 11:50:49;;;;;;;8.80;1.87;;;;;;;;;;5309651;26;20295;-93
2024/04/12 11:53:37;;;;;;;11.53;1.67;;;;;;;;;;5330494;26;20305;-94
2024/04/12 11:56:04;;;;;;;3.70;2.00;;;;;;;;;;5339688;26;20260;-93
2024/04/12 11:58:30;;;;;;;4.90;2.00;;;;;;;;;;5303612;26;20265;-93
2024/04/12 12:01:04;;;;;;;5.03;1.30;;;;;;;;;;5278363;26;20245;-92
2024/04/12 12:03:33;;;;;;;6.47;2.40;;;;;;;;;;5312183;26;20236;-93
2024/04/12 12:06:06;;;;;;;2.83;1.33;;;;;;;;;;5335974;26;20264;-93
2024/04/12 12:08:41;;;;;;;9.00;2.37;;;;;;;;;;5313173;26;20260;-92
2024/04/12 12:11:10;;;;;;;7.03;3.47;;;;;;;;;;5292138;26;20264;-94
2024/04/12 12:13:43;;;;;;;4.70;2.00;;;;;;;;;;5276118;26;20361;-93
2024/04/12 12:16:14;;;;;;;3.23;1.67;;;;;;;;;;5266029;26;20572;-92
2024/04/12 12:18:47;;;;;;;2.83;1.33;;;;;;;;;;5278020;26;20253;-94
2024/04/12 12:21:23;;;;;;;4.00;1.30;;;;;;;;;;5276897;26;20275;-93
2024/04/12 12:23:50;;;;;;;4.13;1.97;;;;;;;;;;5267309;26;20872;-93
2024/04/12 12:26:16;;;;;;;5.10;2.20;;;;;;;;;;5277853;26;20312;-92
2024/04/12 12:28:44;;;;;;;2.93;1.57;;;;;;;;;;5274463;26;20288;-91
2024/04/12 12:31:13;;;;;;;10.67;2.60;;;;;;;;;;5329820;26;20716;-94
2024/04/12 12:33:45;;;;;;;12.00;2.13;;;;;;;;;;5327496;26;20284;-93
2024/04/12 12:36:11;;;;;;;5.33;2.50;;;;;;;;;;5326303;26;20326;-94
2024/04/12 12:38:40;;;;;;;3.83;1.43;;;;;;;;;;5324775;26;20374;-92
2024/04/12 12:41:10;;;;;;;9.67;2.20;;;;;;;;;;5326485;26;20330;-92
2024/04/12 12:43:44;;;;;;;6.93;2.43;;;;;;;;;;5328108;26;20265;-93
2024/04/12 12:46:16;;;;;;;9.23;2.40;;;;;;;;;;5338880;26;20268;-92
2024/04/12 12:48:45;;;;;;;10.97;2.97;;;;;;;;;;5356119;26;20330;-93
2024/04/12 12:51:12;;;;;;;4.00;2.10;;;;;;;;;;5324523;26;20303;-91
2024/04/12 12:53:51;;;;;;;4.70;1.80;;;;;;;;;;5325905;26;20265;-89
2024/04/12 12:56:20;;;;;;;3.13;1.90;;;;;;;;;;5328803;26;20279;-93
2024/04/12 12:58:47;;;;;;;7.10;2.60;;;;;;;;;;5324260;26;20394;-92
2024/04/12 13:01:16;;;;;;;2.53;1.90;;;;;;;;;;5327870;26;20260;-93
2024/04/12 13:03:47;;;;;;;10.60;2.30;;;;;;;;;;5322344;26;20777;-91
2024/04/12 13:06:23;;;;;;;2.30;1.53;;;;;;;;;;5327160;26;20260;-93
2024/04/12 13:08:53;;;;;;;3.73;1.60;;;;;;;;;;5305230;26;20298;-93
2024/04/12 13:11:28;;;;;;;5.47;2.50;;;;;;;;;;5275758;26;20332;-93
2024/04/12 13:13:54;;;;;;;3.13;1.97;;;;;;;;;;5286114;26;20344;-93
2024/04/12 13:16:23;;;;;;;2.97;1.83;;;;;;;;;;5267864;26;20308;-94
2024/04/12 13:18:52;;;;;;;3.33;2.23;;;;;;;;;;5331778;26;20242;-94
2024/04/12 13:21:19;;;;;;;9.13;2.30;;;;;;;;;;5332522;26;20272;-94
2024/04/12 13:23:53;;;;;;;2.00;1.80;;;;;;;;;;5329865;26;20292;-94
2024/04/12 13:26:33;;;;;;;;;;;;;;;;;;;;;
2024/04/12 13:29:04;;;;;;;4.77;1.50;;;;;;;;;;5300667;26;20944;-95
2024/04/12 13:31:34;;;;;;;7.77;1.93;;;;;;;;;;5329789;26;20292;-93
2024/04/12 13:34:12;;;;;;;9.70;1.60;;;;;;;;;;5292203;26;20245;-92
2024/04/12 13:36:41;;;;;;;4.30;1.67;;;;;;;;;;5334279;26;20284;-92
2024/04/12 13:39:13;;;;;;;4.70;1.83;;;;;;;;;;5338223;26;20352;-90
2024/04/12 13:41:44;;;;;;;6.10;1.77;;;;;;;;;;5356794;26;20261;-91
2024/04/12 13:44:24;;;;;;;5.80;1.53;;;;;;;;;;5326358;26;20269;-92
2024/04/12 13:52:23;;;;;;;2.50;2.30;;;;;;;;;;5337154;26;20399;-92
2024/04/12 13:54:55;;;;;;;8.13;3.27;;;;;;;;;;5299992;26;20248;-92
2024/04/12 13:57:24;;;;;;;12.93;2.43;;;;;;;;;;5339647;26;20249;-94
2024/04/12 13:59:54;;;;;;;4.80;2.80;;;;;;;;;;5328081;26;20260;-93
2024/04/12 14:02:30;;;;;;;2.27;1.80;;;;;;;;;;5320079;26;20294;-91
2024/04/12 14:05:01;;;;;;;6.33;2.53;;;;;;;;;;5332551;26;20275;-91
2024/04/12 14:07:33;;;;;;;2.70;1.43;;;;;;;;;;5316108;26;20267;-90
2024/04/12 14:10:06;;;;;;;2.50;2.30;;;;;;;;;;5328761;26;20275;-90
2024/04/12 14:12:32;;;;;;;4.67;1.73;;;;;;;;;;5294697;26;20237;-92
2024/04/12 14:15:01;;;;;;;7.83;1.67;;;;;;;;;;5291937;26;20304;-91
2024/04/12 14:17:29;;;;;;;5.90;1.63;;;;;;;;;;5303902;26;20332;-90
2024/04/12 14:19:59;;;;;;;9.37;2.47;;;;;;;;;;5265127;26;20293;-91
2024/04/12 14:22:25;;;;;;;4.13;1.70;;;;;;;;;;5295939;26;20265;-92
2024/04/12 14:25:01;;;;;;;4.17;1.83;;;;;;;;;;5270608;26;20245;-92
2024/04/12 14:27:31;;;;;;;2.47;2.23;;;;;;;;;;5269022;26;20249;-90
2024/04/12 14:30:03;;;;;;;2.27;2.10;;;;;;;;;;5295536;26;20278;-92
2024/04/12 14:32:29;;;;;;;2.93;2.07;;;;;;;;;;5293696;26;20307;-93
2024/04/12 14:34:55;;;;;;;2.47;1.63;;;;;;;;;;5250344;26;20305;-91
2024/04/12 14:37:24;;;;;;;1.53;1.43;;;;;;;;;;5237607;26;20807;-91
2024/04/12 14:39:50;;;;;;;10.10;2.33;;;;;;;;;;5291307;26;20290;-92
2024/04/12 14:42:22;;;;;;;6.37;2.87;;;;;;;;;;5296253;26;20249;-91
2024/04/12 14:44:48;;;;;;;5.37;2.20;;;;;;;;;;5332615;26;20298;-92
2024/04/12 14:47:17;;;;;;;2.80;2.07;;;;;;;;;;5302991;26;20433;-92
2024/04/12 14:49:47;;;;;;;4.67;1.87;;;;;;;;;;5296794;26;20261;-90
2024/04/12 14:52:14;;;;;;;7.30;3.10;;;;;;;;;;5340114;26;20370;-93
2024/04/12 14:54:43;;;;;;;3.53;1.90;;;;;;;;;;5297270;26;20303;-92
2024/04/12 14:57:09;;;;;;;5.43;2.17;;;;;;;;;;5326166;26;20768;-92
2024/04/12 14:59:38;;;;;;;10.87;2.33;;;;;;;;;;5313619;26;20280;-94
2024/04/12 15:02:08;;;;;;;6.77;1.97;;;;;;;;;;5242318;27;20300;-93
2024/04/12 15:48:45;;;;;;;4.00;2.03;;;;;;;;;;5330851;26;20290;-92
2024/04/12 15:51:16;;;;;;;6.60;2.50;;;;;;;;;;5330042;26;20302;-91
2024/04/12 15:53:45;;;;;;;3.67;1.60;;;;;;;;;;5296364;26;20268;-92
2024/04/12 16:12:25;;;;;;;7.47;2.00;;;;;;;;;;5360239;26;20283;-92
2024/04/12 16:14:54;;;;;;;6.67;1.97;;;;;;;;;;5327135;26;20308;-92
2024/04/12 16:17:23;;;;;;;3.33;1.23;;;;;;;;;;5307774;26;20255;-94
2024/04/12 16:19:53;;;;;;;3.27;2.20;;;;;;;;;;5332210;26;20269;-92
2024/04/12 16:22:19;;;;;;;3.77;1.73;;;;;;;;;;5322078;26;20268;-92
2024/04/12 16:24:49;;;;;;;2.83;1.70;;;;;;;;;;5324248;26;20237;-93
2024/04/12 16:27:15;;;;;;;5.90;1.83;;;;;;;;;;5329654;26;20248;-91
2024/04/12 16:29:42;;;;;;;10.30;2.43;;;;;;;;;;5328762;26;20311;-91
2024/04/12 16:32:13;;;;;;;4.70;1.40;;;;;;;;;;5350669;26;20265;-93
2024/04/12 16:34:43;;;;;;;9.93;2.10;;;;;;;;;;5327489;26;20339;-93
2024/04/12 16:37:09;;;;;;;5.63;1.77;;;;;;;;;;5353385;26;20265;-91
2024/04/12 16:39:36;;;;;;;1.77;1.50;;;;;;;;;;5326271;26;20264;-92
2024/04/12 16:42:10;;;;;;;7.83;1.73;;;;;;;;;;5324245;26;20295;-90
2024/04/12 16:44:38;;;;;;;9.93;1.57;;;;;;;;;;5300219;26;20286;-91
2024/04/12 16:47:10;;;;;;;2.73;1.37;;;;;;;;;;5338223;26;20862;-93
2024/04/12 16:49:37;;;;;;;3.23;1.37;;;;;;;;;;5353297;26;20338;-94
2024/04/12 16:52:07;;;;;;;1.73;0.97;;;;;;;;;;5327875;26;20248;-93
2024/04/12 16:54:34;;;;;;;3.63;1.87;;;;;;;;;;5302627;26;20353;-92
2024/04/12 16:57:06;;;;;;;4.53;2.17;;;;;;;;;;5327666;26;20264;-92
2024/04/12 16:59:33;;;;;;;4.57;1.90;;;;;;;;;;5318597;26;20300;-90
2024/04/12 17:02:13;;;;;;;1.63;1.40;;;;;;;;;;5354838;26;20264;-92
2024/04/12 17:04:39;;;;;;;3.80;1.93;;;;;;;;;;5318537;26;20315;-92
2024/04/12 17:07:11;;;;;;;4.03;1.17;;;;;;;;;;5322728;26;20236;-93
2024/04/12 17:09:41;;;;;;;3.00;1.87;;;;;;;;;;5300969;26;20260;-93
2024/04/12 17:12:24;;;;;;;3.57;1.07;;;;;;;;;;5362645;26;20244;-93
2024/04/12 17:14:52;;;;;;;4.70;1.50;;;;;;;;;;5349428;26;20272;-92
2024/04/12 17:17:26;;;;;;;3.17;1.60;;;;;;;;;;5322565;26;20732;-93
2024/04/12 17:19:53;;;;;;;3.47;1.50;;;;;;;;;;5322801;26;20271;-92
2024/04/12 17:22:24;;;;;;;14.80;3.33;;;;;;;;;;5296535;26;20294;-94
2024/04/12 17:24:52;;;;;;;6.07;1.47;;;;;;;;;;5328299;26;20333;-93
2024/04/12 17:27:20;;;;;;;15.93;3.23;;;;;;;;;;5326455;26;20248;-92
2024/04/12 17:29:52;;;;;;;6.60;2.03;;;;;;;;;;5330008;26;20751;-94
2024/04/12 17:32:18;;;;;;;6.73;1.77;;;;;;;;;;5327117;26;20298;-92